createdAt,value
2023-01-19T00:00:44.328Z,8.75
2023-01-19T00:03:16.024Z,12.65
2023-01-19T00:05:43.840Z,9.88
2023-01-19T00:08:16.727Z,8.55
2023-01-19T00:10:43.588Z,9.77
2023-01-19T00:13:10.302Z,11.52
2023-01-19T00:15:37.074Z,10.88
2023-01-19T00:18:03.781Z,8.95
2023-01-19T00:20:32.825Z,10.48
2023-01-19T00:23:00.235Z,8.20
2023-01-19T00:25:27.189Z,14.63
2023-01-19T00:27:53.955Z,11.35
2023-01-19T00:30:20.651Z,10.38
2023-01-19T00:32:47.368Z,15.32
2023-01-19T00:35:14.114Z,10.95
2023-01-19T00:37:40.847Z,8.50
2023-01-19T00:40:07.558Z,11.05
2023-01-19T00:42:40.544Z,7.72
2023-01-19T00:45:07.278Z,13.88
2023-01-19T00:47:33.957Z,10.20
2023-01-19T00:50:00.760Z,10.35
2023-01-19T00:52:27.492Z,7.32
2023-01-19T00:54:54.170Z,6.93
2023-01-19T00:57:20.845Z,10.57
2023-01-19T00:59:47.598Z,11.90
2023-01-19T01:02:14.517Z,7.32
2023-01-19T01:04:41.356Z,10.23
2023-01-19T01:07:08.082Z,12.10
2023-01-19T01:09:34.789Z,7.20
2023-01-19T01:12:01.620Z,10.60
2023-01-19T01:14:28.871Z,10.98
2023-01-19T01:16:55.566Z,11.27
2023-01-19T01:19:22.264Z,10.73
2023-01-19T01:21:49.061Z,8.27
2023-01-19T01:24:16.329Z,8.48
2023-01-19T01:26:43.100Z,9.85
2023-01-19T01:29:10.016Z,11.88
2023-01-19T01:31:36.820Z,9.13
2023-01-19T01:34:03.620Z,8.75
2023-01-19T01:36:33.356Z,11.20
2023-01-19T01:39:00.242Z,9.20
2023-01-19T01:41:27.661Z,12.63
2023-01-19T01:43:56.947Z,9.30
2023-01-19T01:46:23.650Z,7.88
2023-01-19T01:48:50.371Z,6.80
2023-01-19T01:51:26.341Z,10.48
2023-01-19T01:53:53.066Z,9.00
2023-01-19T01:56:19.754Z,9.45
2023-01-19T01:58:46.448Z,10.38
2023-01-19T02:01:32.265Z,11.40
2023-01-19T02:03:58.987Z,10.43
2023-01-19T02:06:25.677Z,8.13
2023-01-19T02:09:11.197Z,8.10
2023-01-19T02:11:56.549Z,9.43
2023-01-19T02:14:23.321Z,6.37
2023-01-19T02:16:50.133Z,7.05
2023-01-19T02:19:16.823Z,9.68
2023-01-19T02:21:43.550Z,9.90
2023-01-19T02:24:10.982Z,12.48
2023-01-19T02:26:37.814Z,5.95
2023-01-19T02:29:04.539Z,7.95
2023-01-19T02:31:31.235Z,6.15
2023-01-19T02:33:57.985Z,7.80
2023-01-19T02:36:25.421Z,6.78
2023-01-19T02:38:52.183Z,6.55
2023-01-19T02:41:18.863Z,6.97
2023-01-19T02:43:45.554Z,8.23
2023-01-19T02:46:12.317Z,7.03
2023-01-19T02:48:39.065Z,12.27
2023-01-19T02:51:05.815Z,8.75
2023-01-19T02:53:32.591Z,9.45
2023-01-19T02:55:59.336Z,6.63
2023-01-19T02:58:26.032Z,8.45
2023-01-19T03:00:52.943Z,9.77
2023-01-19T03:03:19.683Z,8.55
2023-01-19T03:05:46.408Z,7.90
2023-01-19T03:08:13.142Z,7.88
2023-01-19T03:10:39.854Z,8.13
2023-01-19T03:13:06.543Z,8.13
2023-01-19T03:15:33.334Z,10.57
2023-01-19T03:18:00.084Z,7.65
2023-01-19T03:20:28.907Z,6.90
2023-01-19T03:22:55.925Z,7.13
2023-01-19T03:25:22.664Z,7.70
2023-01-19T03:27:49.348Z,7.72
2023-01-19T03:30:16.090Z,8.85
2023-01-19T03:32:42.806Z,9.98
2023-01-19T03:35:09.504Z,9.13
2023-01-19T03:37:36.240Z,10.77
2023-01-19T03:40:03.395Z,7.63
2023-01-19T03:42:30.143Z,11.85
2023-01-19T03:44:56.833Z,6.53
2023-01-19T03:47:23.618Z,7.25
2023-01-19T03:49:50.797Z,8.88
2023-01-19T03:52:17.528Z,6.60
2023-01-19T03:54:44.414Z,6.57
2023-01-19T03:57:11.182Z,10.93
2023-01-19T03:59:37.847Z,8.43
2023-01-19T04:02:04.618Z,10.75
2023-01-19T04:04:31.334Z,5.53
2023-01-19T04:06:58.123Z,9.10
2023-01-19T04:09:25.773Z,7.45
2023-01-19T04:11:52.758Z,11.02
2023-01-19T04:14:19.476Z,12.15
2023-01-19T04:16:46.207Z,7.88
2023-01-19T04:19:12.909Z,8.98
2023-01-19T04:21:39.798Z,8.73
2023-01-19T04:24:06.529Z,7.70
2023-01-19T04:26:33.245Z,9.32
2023-01-19T04:28:59.942Z,11.07
2023-01-19T04:31:27.258Z,9.07
2023-01-19T04:33:54.019Z,8.95
2023-01-19T04:36:20.739Z,12.65
2023-01-19T04:38:48.644Z,9.00
2023-01-19T04:41:15.338Z,8.50
2023-01-19T04:43:42.091Z,13.75
2023-01-19T04:46:08.845Z,10.20
2023-01-19T04:48:35.540Z,7.45
2023-01-19T04:51:02.405Z,10.48
2023-01-19T04:53:29.131Z,10.43
2023-01-19T04:55:55.879Z,11.05
2023-01-19T04:58:22.608Z,8.70
2023-01-19T05:00:51.170Z,12.90
2023-01-19T05:03:19.339Z,11.25
2023-01-19T05:05:46.199Z,9.20
2023-01-19T05:08:12.893Z,7.80
2023-01-19T05:10:39.638Z,10.68
2023-01-19T05:13:06.396Z,9.98
2023-01-19T05:15:33.115Z,9.95
2023-01-19T05:18:00.104Z,7.18
2023-01-19T05:20:26.854Z,11.70
2023-01-19T05:22:53.691Z,11.40
2023-01-19T05:25:20.349Z,7.93
2023-01-19T05:27:47.117Z,8.45
2023-01-19T05:30:13.933Z,9.20
2023-01-19T05:32:40.638Z,7.65
2023-01-19T05:35:07.323Z,9.43
2023-01-19T05:37:34.188Z,9.48
2023-01-19T05:40:00.882Z,7.05
2023-01-19T05:42:27.604Z,8.52
2023-01-19T05:44:54.281Z,7.15
2023-01-19T05:47:20.992Z,12.63
2023-01-19T05:49:47.766Z,9.88
2023-01-19T05:52:14.964Z,10.20
2023-01-19T05:54:41.662Z,9.20
2023-01-19T05:57:08.431Z,8.85
2023-01-19T05:59:35.238Z,8.45
2023-01-19T06:02:02.050Z,9.80
2023-01-19T06:04:28.917Z,11.02
2023-01-19T06:06:55.598Z,7.30
2023-01-19T06:09:22.326Z,7.60
2023-01-19T06:11:49.185Z,6.68
2023-01-19T06:14:16.031Z,9.02
2023-01-19T06:16:42.823Z,8.23
2023-01-19T06:19:09.637Z,10.00
2023-01-19T06:21:36.334Z,11.52
2023-01-19T06:24:03.769Z,10.32
2023-01-19T06:26:30.489Z,8.50
2023-01-19T06:28:57.245Z,8.73
2023-01-19T06:31:24.030Z,10.05
2023-01-19T06:33:50.812Z,11.68
2023-01-19T06:36:17.519Z,10.52
2023-01-19T06:38:44.217Z,7.25
2023-01-19T06:41:10.959Z,12.95
2023-01-19T06:43:37.872Z,10.10
2023-01-19T06:46:04.976Z,10.68
2023-01-19T06:48:31.740Z,6.95
2023-01-19T06:50:59.684Z,13.15
2023-01-19T06:53:28.095Z,9.07
2023-01-19T06:55:54.857Z,13.57
2023-01-19T06:58:21.881Z,8.75
2023-01-19T07:00:50.392Z,9.40
2023-01-19T07:03:17.857Z,9.10
2023-01-19T07:05:44.591Z,11.27
2023-01-19T07:08:11.284Z,11.00
2023-01-19T07:11:22.265Z,13.25
2023-01-19T07:13:24.744Z,13.32
2023-01-19T07:15:51.530Z,9.65
2023-01-19T07:18:18.239Z,10.50
2023-01-19T07:20:46.848Z,9.23
2023-01-19T07:23:13.627Z,9.93
2023-01-19T07:25:40.545Z,9.70
2023-01-19T07:28:07.233Z,8.63
2023-01-19T07:30:34.064Z,9.80
2023-01-19T07:33:02.687Z,10.48
2023-01-19T07:35:29.803Z,9.85
2023-01-19T07:37:56.534Z,10.88
2023-01-19T07:40:24.104Z,9.15
2023-01-19T07:42:51.060Z,13.20
2023-01-19T07:45:17.778Z,9.35
2023-01-19T07:47:44.770Z,8.85
2023-01-19T07:50:11.516Z,9.52
2023-01-19T07:52:38.357Z,10.50
2023-01-19T07:55:05.125Z,6.78
2023-01-19T07:57:31.816Z,7.55
2023-01-19T07:59:58.585Z,8.93
2023-01-19T08:02:25.932Z,9.13
2023-01-19T08:04:52.812Z,11.10
2023-01-19T08:07:19.564Z,6.75
2023-01-19T08:09:46.330Z,7.30
2023-01-19T08:12:13.043Z,10.52
2023-01-19T08:14:39.915Z,8.35
2023-01-19T08:17:06.615Z,13.73
2023-01-19T08:19:33.507Z,10.68
2023-01-19T08:22:00.691Z,12.95
2023-01-19T08:24:29.238Z,11.77
2023-01-19T08:26:55.978Z,11.65
2023-01-19T08:29:22.647Z,12.75
2023-01-19T08:31:49.607Z,9.60
2023-01-19T08:34:16.360Z,8.38
2023-01-19T08:36:43.061Z,10.00
2023-01-19T08:39:09.832Z,12.95
2023-01-19T08:41:36.565Z,11.35
2023-01-19T08:44:03.317Z,12.32
2023-01-19T08:46:30.196Z,10.43
2023-01-19T08:48:56.931Z,12.20
2023-01-19T08:51:23.753Z,9.38
2023-01-19T08:53:50.610Z,7.85
2023-01-19T08:56:19.011Z,8.82
2023-01-19T08:58:53.629Z,8.93
2023-01-19T09:01:30.170Z,8.75
2023-01-19T09:03:57.063Z,9.55
2023-01-19T09:06:25.299Z,9.25
2023-01-19T09:08:52.116Z,10.18
2023-01-19T09:11:19.803Z,12.82
2023-01-19T09:13:46.756Z,8.70
2023-01-19T09:16:15.222Z,7.72
2023-01-19T09:18:42.007Z,8.77
2023-01-19T09:21:08.691Z,8.20
2023-01-19T09:23:35.536Z,8.25
2023-01-19T09:26:02.293Z,9.57
2023-01-19T09:28:29.406Z,8.05
2023-01-19T09:30:56.349Z,9.27
2023-01-19T09:33:23.281Z,11.13
2023-01-19T09:35:51.846Z,8.63
2023-01-19T09:38:18.633Z,8.88
2023-01-19T09:40:45.339Z,10.60
2023-01-19T09:43:12.080Z,9.70
2023-01-19T09:45:38.887Z,11.50
2023-01-19T09:48:05.654Z,9.00
2023-01-19T09:50:32.387Z,9.80
2023-01-19T09:53:01.528Z,10.48
2023-01-19T09:55:28.527Z,11.40
2023-01-19T09:57:55.252Z,14.50
2023-01-19T10:00:23.476Z,7.88
2023-01-19T10:02:51.852Z,11.45
2023-01-19T10:05:18.574Z,10.75
2023-01-19T10:07:45.265Z,9.93
2023-01-19T10:10:12.015Z,7.03
2023-01-19T10:12:38.732Z,13.43
2023-01-19T10:15:06.851Z,15.90
2023-01-19T10:17:33.625Z,10.75
2023-01-19T10:20:00.304Z,9.20
2023-01-19T10:22:27.042Z,8.55
2023-01-19T10:24:53.789Z,12.00
2023-01-19T10:27:20.870Z,9.85
2023-01-19T10:29:47.554Z,9.25
2023-01-19T10:32:14.966Z,11.05
2023-01-19T10:34:41.814Z,11.88
2023-01-19T10:37:08.548Z,10.63
2023-01-19T10:39:38.560Z,6.40
2023-01-19T10:42:06.018Z,7.80
2023-01-19T10:44:32.730Z,9.90
2023-01-19T10:46:59.806Z,8.90
2023-01-19T10:49:26.746Z,9.57
2023-01-19T10:51:53.483Z,13.48
2023-01-19T10:54:20.217Z,11.18
2023-01-19T10:56:47.088Z,11.00
2023-01-19T10:59:13.766Z,14.10
2023-01-19T11:01:40.614Z,8.18
2023-01-19T11:04:07.440Z,9.27
2023-01-19T11:06:35.231Z,9.40
2023-01-19T11:09:01.957Z,10.55
2023-01-19T11:11:28.724Z,8.23
2023-01-19T11:13:55.455Z,8.10
2023-01-19T11:16:22.236Z,9.18
2023-01-19T11:18:48.961Z,6.18
2023-01-19T11:21:15.665Z,9.02
2023-01-19T11:23:43.184Z,11.32
2023-01-19T11:26:09.988Z,11.85
2023-01-19T11:28:36.763Z,8.50
2023-01-19T11:31:03.493Z,9.60
2023-01-19T11:33:30.209Z,8.70
2023-01-19T11:35:56.967Z,6.97
2023-01-19T11:38:25.721Z,7.85
2023-01-19T11:40:52.906Z,9.93
2023-01-19T11:43:19.639Z,8.25
2023-01-19T11:45:46.432Z,8.10
2023-01-19T11:48:13.151Z,8.43
2023-01-19T11:50:39.843Z,10.65
2023-01-19T11:53:06.524Z,9.95
2023-01-19T11:55:33.861Z,10.13
2023-01-19T11:58:00.937Z,7.57
2023-01-19T12:00:29.103Z,8.93
2023-01-19T12:02:56.009Z,9.50
2023-01-19T12:05:22.749Z,8.93
2023-01-19T12:07:49.620Z,13.13
2023-01-19T12:10:16.386Z,12.23
2023-01-19T12:12:43.182Z,10.40
2023-01-19T12:15:09.911Z,9.00
2023-01-19T12:17:36.665Z,9.05
2023-01-19T12:20:03.373Z,9.02
2023-01-19T12:22:30.217Z,9.82
2023-01-19T12:24:56.986Z,10.63
2023-01-19T12:27:23.886Z,6.45
2023-01-19T12:29:50.626Z,8.15
2023-01-19T12:32:17.468Z,8.90
2023-01-19T12:34:44.211Z,8.48
2023-01-19T12:37:12.544Z,12.10
2023-01-19T12:39:40.374Z,10.00
2023-01-19T12:42:07.103Z,12.63
2023-01-19T12:44:36.622Z,10.25
2023-01-19T12:47:06.388Z,11.40
2023-01-19T12:49:33.204Z,7.43
2023-01-19T12:51:59.941Z,9.43
2023-01-19T12:54:26.640Z,16.10
2023-01-19T12:56:53.379Z,10.55
2023-01-19T12:59:20.158Z,10.05
2023-01-19T13:01:46.959Z,10.35
2023-01-19T13:04:13.735Z,11.57
2023-01-19T13:06:40.478Z,9.93
2023-01-19T13:09:07.170Z,13.48
2023-01-19T13:11:34.786Z,9.75
2023-01-19T13:14:01.577Z,10.27
2023-01-19T13:16:28.312Z,10.50
2023-01-19T13:18:55.036Z,15.77
2023-01-19T13:21:21.749Z,10.35
2023-01-19T13:23:51.419Z,5.70
2023-01-19T13:26:18.125Z,10.75
2023-01-19T13:28:44.870Z,8.80
2023-01-19T13:31:11.708Z,9.15
2023-01-19T13:33:40.831Z,7.05
2023-01-19T13:36:08.016Z,8.35
2023-01-19T13:38:34.744Z,6.93
2023-01-19T13:41:01.417Z,9.25
2023-01-19T13:43:28.442Z,10.27
2023-01-19T13:45:55.159Z,7.55
2023-01-19T13:48:25.163Z,9.50
2023-01-19T13:50:51.941Z,7.18
2023-01-19T13:53:23.559Z,13.50
2023-01-19T13:55:50.287Z,8.40
2023-01-19T13:58:17.051Z,9.98
2023-01-19T14:00:43.783Z,8.38
2023-01-19T14:03:10.667Z,8.07
2023-01-19T14:05:37.700Z,9.98
2023-01-19T14:08:04.549Z,9.20
2023-01-19T14:10:31.386Z,8.73
2023-01-19T14:12:59.552Z,9.75
2023-01-19T14:15:26.411Z,9.35
2023-01-19T14:18:08.296Z,10.85
2023-01-19T14:20:37.120Z,13.38
2023-01-19T14:23:03.838Z,12.07
2023-01-19T14:25:30.581Z,7.68
2023-01-19T14:27:57.237Z,10.25
2023-01-19T14:30:27.036Z,11.27
2023-01-19T14:32:54.387Z,11.80
2023-01-19T14:35:21.101Z,9.70
2023-01-19T14:37:47.814Z,10.45
2023-01-19T14:40:14.928Z,10.88
2023-01-19T14:42:41.637Z,11.88
2023-01-19T14:45:08.569Z,10.35
2023-01-19T14:47:35.460Z,8.60
2023-01-19T14:50:02.312Z,8.70
2023-01-19T14:52:29.073Z,11.00
2023-01-19T14:54:55.770Z,7.80
2023-01-19T14:57:22.505Z,13.23
2023-01-19T14:59:50.295Z,13.60
2023-01-19T15:02:19.136Z,9.00
2023-01-19T15:04:46.729Z,7.95
2023-01-19T15:07:13.501Z,11.30
2023-01-19T15:09:40.243Z,9.98
2023-01-19T15:12:06.952Z,9.95
2023-01-19T15:14:33.743Z,8.57
2023-01-19T15:17:00.981Z,10.52
2023-01-19T15:19:27.716Z,7.78
2023-01-19T15:21:54.408Z,12.30
2023-01-19T15:24:21.136Z,6.38
2023-01-19T15:26:47.842Z,7.85
2023-01-19T15:29:14.623Z,8.43
2023-01-19T15:31:41.351Z,10.27
2023-01-19T15:34:08.069Z,6.32
2023-01-19T15:36:34.888Z,7.80
2023-01-19T15:39:01.656Z,8.50
2023-01-19T15:41:29.835Z,7.43
2023-01-19T15:43:56.556Z,10.80
2023-01-19T15:46:23.358Z,8.50
2023-01-19T15:48:50.493Z,8.48
2023-01-19T15:51:17.199Z,11.82
2023-01-19T15:53:43.918Z,11.18
2023-01-19T15:56:10.667Z,10.75
2023-01-19T15:58:37.339Z,15.25
2023-01-19T16:01:04.282Z,12.40
2023-01-19T16:03:31.090Z,12.52
2023-01-19T16:05:57.820Z,8.73
2023-01-19T16:08:24.599Z,7.55
2023-01-19T16:10:51.301Z,10.55
2023-01-19T16:13:18.065Z,9.68
2023-01-19T16:15:44.809Z,10.45
2023-01-19T16:18:11.585Z,7.85
2023-01-19T16:20:38.304Z,11.63
2023-01-19T16:23:20.141Z,9.05
2023-01-19T16:25:46.941Z,7.95
2023-01-19T16:28:13.817Z,11.80
2023-01-19T16:30:40.704Z,8.88
2023-01-19T16:33:08.485Z,8.70
2023-01-19T16:35:35.183Z,11.80
2023-01-19T16:38:01.956Z,11.07
2023-01-19T16:40:28.669Z,8.40
2023-01-19T16:42:55.378Z,8.20
2023-01-19T16:45:22.202Z,9.52
2023-01-19T16:47:52.150Z,4.90
2023-01-19T16:50:18.895Z,12.88
2023-01-19T16:52:45.857Z,7.30
2023-01-19T16:55:12.624Z,12.25
2023-01-19T16:57:39.355Z,6.40
2023-01-19T17:00:06.128Z,9.48
2023-01-19T17:02:32.870Z,13.80
2023-01-19T17:05:00.306Z,9.77
2023-01-19T17:07:27.056Z,10.07
2023-01-19T17:09:54.018Z,8.52
2023-01-19T17:12:20.733Z,10.75
2023-01-19T17:14:47.557Z,8.82
2023-01-19T17:17:14.269Z,10.63
2023-01-19T17:19:41.107Z,11.02
2023-01-19T17:22:07.878Z,8.35
2023-01-19T17:24:34.636Z,10.65
2023-01-19T17:27:01.413Z,18.23
2023-01-19T17:29:28.077Z,17.33
2023-01-19T17:31:54.818Z,14.52
2023-01-19T17:34:21.500Z,16.17
2023-01-19T17:36:48.196Z,18.48
2023-01-19T17:39:16.848Z,14.15
2023-01-19T17:41:43.566Z,12.60
2023-01-19T17:44:10.245Z,15.75
2023-01-19T17:46:36.996Z,11.55
2023-01-19T17:49:03.811Z,10.88
2023-01-19T17:51:30.512Z,10.15
2023-01-19T17:53:57.367Z,10.10
2023-01-19T17:56:27.480Z,14.98
2023-01-19T17:58:54.273Z,12.77
2023-01-19T18:01:21.220Z,14.18
2023-01-19T18:03:47.966Z,12.30
2023-01-19T18:06:14.715Z,11.68
2023-01-19T18:08:41.381Z,10.35
2023-01-19T18:11:08.212Z,12.38
2023-01-19T18:13:34.950Z,16.63
2023-01-19T18:16:01.711Z,15.05
2023-01-19T18:18:28.507Z,12.80
2023-01-19T18:20:55.267Z,17.67
2023-01-19T18:23:21.941Z,17.83
2023-01-19T18:25:48.670Z,24.85
2023-01-19T18:28:15.427Z,24.17
2023-01-19T18:30:42.183Z,22.73
2023-01-19T18:33:08.969Z,24.42
2023-01-19T18:35:36.115Z,23.58
2023-01-19T18:38:02.883Z,19.63
2023-01-19T18:40:29.663Z,19.83
2023-01-19T18:42:56.335Z,20.20
2023-01-19T18:45:23.053Z,18.33
2023-01-19T18:47:49.791Z,18.05
2023-01-19T18:50:16.612Z,20.92
2023-01-19T18:52:43.480Z,14.45
2023-01-19T18:55:10.255Z,19.30
2023-01-19T18:57:36.969Z,22.98
2023-01-19T19:00:03.651Z,17.13
2023-01-19T19:02:30.466Z,21.48
2023-01-19T19:04:57.171Z,19.27
2023-01-19T19:07:23.981Z,15.13
2023-01-19T19:09:50.792Z,17.58
2023-01-19T19:12:17.669Z,15.55
2023-01-19T19:14:44.362Z,15.85
2023-01-19T19:17:11.097Z,15.68
2023-01-19T19:19:37.828Z,14.57
2023-01-19T19:22:04.519Z,14.68
2023-01-19T19:24:31.282Z,15.48
2023-01-19T19:26:58.078Z,17.70
2023-01-19T19:29:24.802Z,19.33
2023-01-19T19:31:51.556Z,19.73
2023-01-19T19:34:18.328Z,18.63
2023-01-19T19:36:45.124Z,20.17
2023-01-19T19:39:11.895Z,18.08
2023-01-19T19:41:38.848Z,18.83
2023-01-19T19:44:05.576Z,20.00
2023-01-19T19:46:32.445Z,17.92
2023-01-19T19:48:59.339Z,15.05
2023-01-19T19:51:27.056Z,16.50
2023-01-19T19:53:53.911Z,29.63
2023-01-19T19:56:21.363Z,19.23
2023-01-19T19:58:48.263Z,15.35
2023-01-19T20:01:15.080Z,18.60
2023-01-19T20:03:41.838Z,18.25
2023-01-19T20:06:08.696Z,18.20
2023-01-19T20:08:35.544Z,16.65
2023-01-19T20:11:02.373Z,17.45
2023-01-19T20:13:29.063Z,19.05
2023-01-19T20:15:55.959Z,21.23
2023-01-19T20:18:22.673Z,20.48
2023-01-19T20:20:49.445Z,25.38
2023-01-19T20:23:16.413Z,22.23
2023-01-19T20:25:43.148Z,27.48
2023-01-19T20:28:09.850Z,19.33
2023-01-19T20:30:36.582Z,22.42
2023-01-19T20:33:03.310Z,18.90
2023-01-19T20:35:30.058Z,21.67
2023-01-19T20:37:56.715Z,20.80
2023-01-19T20:40:23.572Z,20.70
2023-01-19T20:42:50.268Z,20.58
2023-01-19T20:45:18.361Z,19.10
2023-01-19T20:47:45.155Z,16.92
2023-01-19T20:50:11.910Z,16.83
2023-01-19T20:52:38.608Z,17.08
2023-01-19T20:55:07.429Z,19.17
2023-01-19T20:57:34.117Z,17.38
2023-01-19T21:00:00.950Z,16.85
2023-01-19T21:02:28.614Z,17.75
2023-01-19T21:04:55.424Z,22.75
2023-01-19T21:07:22.144Z,23.42
2023-01-19T21:09:48.867Z,22.90
2023-01-19T21:12:16.133Z,15.90
2023-01-19T21:14:43.928Z,16.20
2023-01-19T21:17:10.724Z,20.00
2023-01-19T21:19:37.461Z,16.40
2023-01-19T21:22:04.195Z,17.83
2023-01-19T21:24:30.864Z,15.02
2023-01-19T21:26:57.565Z,16.30
2023-01-19T21:29:24.294Z,16.63
2023-01-19T21:31:51.030Z,19.15
2023-01-19T21:34:17.854Z,16.92
2023-01-19T21:36:44.731Z,18.02
2023-01-19T21:39:11.521Z,22.20
2023-01-19T21:41:39.904Z,17.75
2023-01-19T21:44:06.689Z,16.77
2023-01-19T21:46:34.067Z,18.88
2023-01-19T21:49:00.839Z,16.73
2023-01-19T21:51:27.576Z,19.02
2023-01-19T21:53:59.469Z,21.55
2023-01-19T21:56:26.895Z,17.63
2023-01-19T21:58:53.634Z,16.33
2023-01-19T22:01:21.795Z,15.25
2023-01-19T22:03:48.624Z,16.92
2023-01-19T22:06:15.393Z,16.08
2023-01-19T22:08:42.150Z,17.35
2023-01-19T22:11:08.864Z,17.10
2023-01-19T22:13:35.596Z,19.15
2023-01-19T22:16:02.318Z,15.85
2023-01-19T22:18:29.056Z,21.00
2023-01-19T22:20:55.781Z,14.73
2023-01-19T22:23:22.461Z,13.57
2023-01-19T22:25:49.150Z,16.20
2023-01-19T22:28:15.866Z,18.48
2023-01-19T22:30:42.848Z,15.18
2023-01-19T22:33:09.680Z,13.23
2023-01-19T22:35:36.404Z,14.68
2023-01-19T22:38:03.137Z,28.80
2023-01-19T22:40:29.878Z,24.10
2023-01-19T22:42:56.700Z,16.20
2023-01-19T22:45:23.765Z,15.60
2023-01-19T22:47:50.473Z,12.45
2023-01-19T22:50:17.163Z,11.65
2023-01-19T22:52:43.855Z,16.52
2023-01-19T22:55:10.584Z,17.77
2023-01-19T22:57:38.371Z,17.58
2023-01-19T23:00:05.120Z,17.02
2023-01-19T23:02:31.823Z,11.65
2023-01-19T23:04:58.628Z,13.15
2023-01-19T23:07:25.422Z,13.27
2023-01-19T23:09:52.108Z,11.77
2023-01-19T23:12:18.825Z,18.05
2023-01-19T23:14:45.530Z,13.73
2023-01-19T23:17:12.233Z,16.35
2023-01-19T23:19:38.951Z,12.38
2023-01-19T23:22:05.682Z,11.63
2023-01-19T23:24:32.422Z,14.10
2023-01-19T23:27:00.405Z,14.93
2023-01-19T23:29:27.148Z,10.40
2023-01-19T23:31:55.955Z,12.30
2023-01-19T23:34:22.644Z,10.18
2023-01-19T23:36:49.397Z,12.05
2023-01-19T23:39:16.131Z,12.10
2023-01-19T23:41:42.880Z,12.25
2023-01-19T23:44:09.747Z,12.73
2023-01-19T23:46:36.420Z,9.45
2023-01-19T23:49:03.139Z,9.60
2023-01-19T23:51:29.869Z,9.68
2023-01-19T23:53:56.584Z,11.68
2023-01-19T23:56:23.357Z,11.05
2023-01-19T23:58:50.066Z,9.00
